createdAt,value
2023-03-23T15:58:38.603Z,63.38
2023-03-23T16:01:11.330Z,63.01
2023-03-23T16:03:43.109Z,61.68
2023-03-23T16:06:25.324Z,61.67
2023-03-23T16:08:54.945Z,61.36
2023-03-23T16:11:23.290Z,62.01
2023-03-23T16:13:50.169Z,62.56
2023-03-23T16:16:23.044Z,62.26
2023-03-23T16:18:49.571Z,62.84
2023-03-23T16:21:16.016Z,62.68
2023-03-23T16:23:44.831Z,62.41
2023-03-23T16:26:11.307Z,62.42
2023-03-23T16:28:38.091Z,62.61
2023-03-23T16:31:04.999Z,62.12
2023-03-23T16:33:31.523Z,62.24
2023-03-23T16:35:58.349Z,62.29
2023-03-23T16:38:25.245Z,62.34
2023-03-23T16:40:51.994Z,62.28
2023-03-23T16:43:18.798Z,62.47
2023-03-23T16:45:46.794Z,62.28
2023-03-23T16:48:15.955Z,62.61
2023-03-23T16:50:44.184Z,62.57
2023-03-23T16:53:11.718Z,62.38
2023-03-23T16:55:39.348Z,62.43
2023-03-23T16:58:16.128Z,62.17
2023-03-23T17:00:44.272Z,61.96
2023-03-23T17:03:11.213Z,62.29
2023-03-23T17:05:38.047Z,62.25
2023-03-23T17:08:05.775Z,62.06
2023-03-23T17:10:32.770Z,62.11
2023-03-23T17:12:59.423Z,62.52
2023-03-23T17:15:26.425Z,62.94
2023-03-23T17:17:54.721Z,62.80
2023-03-23T17:20:22.099Z,62.55
2023-03-23T17:22:48.966Z,62.55
2023-03-23T17:25:15.521Z,62.00
2023-03-23T17:27:42.866Z,62.25
2023-03-23T17:30:11.237Z,62.74
2023-03-23T17:32:37.709Z,62.83
2023-03-23T17:35:05.770Z,62.27
2023-03-23T17:37:34.680Z,62.43
2023-03-23T17:40:01.199Z,61.91
2023-03-23T17:42:27.655Z,61.83
2023-03-23T17:44:54.259Z,62.43
2023-03-23T17:47:20.978Z,62.57
2023-03-23T17:49:53.182Z,62.99
2023-03-23T17:52:23.403Z,63.03
2023-03-23T17:55:03.545Z,62.82
2023-03-23T17:57:30.199Z,63.31
2023-03-23T17:59:56.673Z,63.91
2023-03-23T18:02:23.645Z,63.64
2023-03-23T18:04:57.359Z,63.90
2023-03-23T18:07:23.946Z,63.81
2023-03-23T18:09:50.832Z,63.98
2023-03-23T18:12:19.083Z,63.55
2023-03-23T18:14:46.175Z,63.98
2023-03-23T18:17:12.605Z,64.27
2023-03-23T18:19:39.201Z,64.29
2023-03-23T18:22:05.730Z,64.55
2023-03-23T18:24:32.315Z,64.45
2023-03-23T18:27:00.173Z,64.62
2023-03-23T18:29:26.890Z,64.75
2023-03-23T18:31:53.405Z,64.34
2023-03-23T18:34:20.473Z,64.50
2023-03-23T18:36:47.155Z,64.73
2023-03-23T18:39:13.615Z,64.89
2023-03-23T18:41:40.332Z,64.93
2023-03-23T18:44:06.954Z,64.89
2023-03-23T18:46:33.784Z,64.89
2023-03-23T18:49:00.416Z,64.76
2023-03-23T18:51:26.977Z,64.92
2023-03-23T18:53:53.496Z,64.84
2023-03-23T18:57:39.402Z,65.31
2023-03-23T19:00:07.094Z,65.40
2023-03-23T19:02:35.101Z,65.16
2023-03-23T19:05:01.793Z,65.42
2023-03-23T19:07:29.727Z,65.42
2023-03-23T19:09:57.370Z,65.78
2023-03-23T19:12:23.915Z,66.28
2023-03-23T19:14:51.653Z,66.41
2023-03-23T19:17:19.853Z,66.38
2023-03-23T19:19:46.405Z,66.50
2023-03-23T19:22:13.968Z,66.86
2023-03-23T19:24:42.229Z,66.96
2023-03-23T19:27:17.355Z,66.85
2023-03-23T19:29:43.910Z,66.78
2023-03-23T19:32:10.528Z,67.04
2023-03-23T19:34:41.673Z,66.98
2023-03-23T19:37:11.044Z,67.21
2023-03-23T19:39:40.470Z,67.43
2023-03-23T19:42:08.230Z,67.36
2023-03-23T19:44:35.022Z,67.55
2023-03-23T19:47:01.448Z,67.81
2023-03-23T19:49:28.757Z,67.62
2023-03-23T19:52:07.167Z,67.44
2023-03-23T19:54:36.048Z,67.32
2023-03-23T19:57:03.680Z,67.50
2023-03-23T19:59:30.433Z,67.55
2023-03-23T20:01:57.534Z,67.53
2023-03-23T20:04:25.768Z,67.51
2023-03-23T20:06:53.772Z,67.68
2023-03-23T20:09:24.730Z,67.88
2023-03-23T20:11:51.651Z,67.93
2023-03-23T20:14:19.742Z,68.20
2023-03-23T20:16:46.522Z,68.14
2023-03-23T20:19:13.000Z,67.91
2023-03-23T20:21:39.794Z,68.24
2023-03-23T20:24:13.184Z,67.87
2023-03-23T20:26:43.168Z,67.74
2023-03-23T20:29:12.863Z,67.68
2023-03-23T20:31:41.171Z,67.54
2023-03-23T20:34:14.067Z,67.73
2023-03-23T20:36:45.546Z,67.82
2023-03-23T20:39:23.283Z,67.74
2023-03-23T20:41:51.435Z,67.95
2023-03-23T20:44:19.750Z,67.70
2023-03-23T20:46:48.289Z,67.65
2023-03-23T20:49:18.491Z,67.75
2023-03-23T20:51:46.391Z,67.42
2023-03-23T20:54:16.768Z,67.55
2023-03-23T20:56:44.472Z,67.63
2023-03-23T20:59:42.226Z,68.10
2023-03-23T21:02:13.465Z,67.95
2023-03-23T21:04:42.080Z,67.70
2023-03-23T21:07:12.668Z,68.12
2023-03-23T21:09:40.845Z,68.29
2023-03-23T21:12:09.393Z,68.18
2023-03-23T21:14:39.036Z,68.21
2023-03-23T21:17:06.828Z,68.37
2023-03-23T21:19:33.763Z,68.39
2023-03-23T21:22:00.917Z,68.57
2023-03-23T21:24:29.336Z,68.69
2023-03-23T21:26:58.355Z,68.79
2023-03-23T21:29:24.965Z,68.99
2023-03-23T21:31:57.832Z,69.30
2023-03-23T21:34:34.347Z,69.15
2023-03-23T21:37:00.796Z,69.43
2023-03-23T21:39:28.098Z,69.77
2023-03-23T21:41:54.602Z,70.04
2023-03-23T21:44:21.406Z,70.29
2023-03-23T21:46:47.908Z,71.01
2023-03-23T21:49:16.888Z,71.74
2023-03-23T21:51:43.522Z,72.45
2023-03-23T21:54:11.810Z,72.17
2023-03-23T21:56:38.876Z,71.94
2023-03-23T21:59:16.083Z,71.87
2023-03-23T22:01:48.991Z,72.38
2023-03-23T22:04:16.945Z,72.26
2023-03-23T22:06:43.409Z,72.63
2023-03-23T22:09:10.878Z,72.84
2023-03-23T22:11:42.452Z,72.81
2023-03-23T22:14:09.371Z,72.62
2023-03-23T22:16:36.312Z,72.85
2023-03-23T22:19:03.318Z,72.62
2023-03-23T22:21:30.356Z,73.57
2023-03-23T22:23:59.416Z,74.59
2023-03-23T22:26:27.647Z,74.98
2023-03-23T22:28:54.824Z,75.23
2023-03-23T22:31:24.933Z,75.37
2023-03-23T22:33:54.898Z,75.60
2023-03-23T22:36:23.151Z,76.09
2023-03-23T22:38:51.248Z,76.75
2023-03-23T22:41:25.015Z,76.69
2023-03-23T22:43:52.109Z,77.27
2023-03-23T22:46:19.042Z,78.58
2023-03-23T22:48:45.800Z,79.87
2023-03-23T22:51:15.085Z,81.61
2023-03-23T22:53:41.577Z,82.16
2023-03-23T22:56:09.024Z,82.02
2023-03-23T22:58:36.105Z,81.99
2023-03-23T23:01:07.168Z,81.72
2023-03-23T23:03:36.855Z,82.48
2023-03-23T23:06:04.128Z,82.96
2023-03-23T23:08:32.944Z,83.65
2023-03-23T23:11:01.613Z,83.52
2023-03-23T23:13:33.237Z,83.56
2023-03-23T23:16:01.931Z,82.88
2023-03-23T23:18:30.352Z,81.98
2023-03-23T23:20:59.816Z,82.04
2023-03-23T23:23:27.509Z,82.69
2023-03-23T23:25:54.258Z,83.23
2023-03-23T23:28:21.787Z,83.18
2023-03-23T23:30:48.815Z,82.85
2023-03-23T23:33:16.295Z,82.58
2023-03-23T23:35:42.930Z,82.96
2023-03-23T23:38:10.499Z,82.73
2023-03-23T23:40:36.898Z,82.90
2023-03-23T23:43:04.399Z,82.23
2023-03-23T23:45:33.747Z,82.07
2023-03-23T23:48:00.549Z,80.41
2023-03-23T23:50:27.667Z,81.01
2023-03-23T23:52:54.200Z,81.19
2023-03-23T23:55:21.462Z,80.94
2023-03-23T23:57:49.033Z,81.12
